Time;durP1;ratioP1;P1;durP2;ratioP2;P2;SDS_P1;SDS_P2;PMS_P1;PMS_P2;Temp;Humidity;BMP_temperature;BMP_pressure;BME280_temperature;BME280_humidity;BME280_pressure;Samples;Min_cycle;Max_cycle;Signal;HPM_P1;HPM_P2
2021/08/21 00:01:50;;;;;;;6.40;4.53;;;;;;;;;;5054350;28;20025;-83
2021/08/21 00:04:15;;;;;;;7.43;4.93;;;;;;;;;;5053630;28;20297;-83
2021/08/21 00:06:43;;;;;;;5.10;4.60;;;;;;;;;;5053597;28;20790;-83
2021/08/21 00:09:09;;;;;;;6.65;4.45;;;;;;;;;;5053875;28;20028;-83
2021/08/21 00:11:34;;;;;;;5.63;4.20;;;;;;;;;;5052687;28;20032;-82
2021/08/21 00:13:59;;;;;;;6.80;4.50;;;;;;;;;;5052318;28;20021;-83
2021/08/21 00:16:25;;;;;;;6.05;4.65;;;;;;;;;;5051537;28;20132;-82
2021/08/21 00:18:50;;;;;;;6.95;4.28;;;;;;;;;;5059261;28;20779;-83
2021/08/21 00:21:15;;;;;;;5.23;4.73;;;;;;;;;;5056638;28;20024;-83
2021/08/21 00:23:41;;;;;;;5.20;4.70;;;;;;;;;;5055387;28;20255;-83
2021/08/21 00:26:06;;;;;;;8.93;4.50;;;;;;;;;;5054267;28;20021;-83
2021/08/21 00:28:32;;;;;;;6.25;5.65;;;;;;;;;;5052508;28;20455;-83
2021/08/21 00:30:57;;;;;;;4.90;4.18;;;;;;;;;;5050853;28;20052;-83
2021/08/21 00:33:22;;;;;;;5.93;4.13;;;;;;;;;;5052249;28;20044;-83
2021/08/21 00:35:48;;;;;;;6.03;5.43;;;;;;;;;;5051760;28;20500;-83
2021/08/21 00:38:13;;;;;;;9.07;5.40;;;;;;;;;;5054976;28;20024;-83
2021/08/21 00:40:38;;;;;;;8.27;5.70;;;;;;;;;;5057126;28;20021;-83
2021/08/21 00:43:03;;;;;;;5.40;4.90;;;;;;;;;;5054811;28;20571;-83
2021/08/21 00:45:29;;;;;;;4.57;4.07;;;;;;;;;;5056238;28;20263;-83
2021/08/21 00:47:55;;;;;;;5.45;4.55;;;;;;;;;;5054174;28;20100;-83
2021/08/21 00:50:20;;;;;;;5.20;4.70;;;;;;;;;;5053802;28;20025;-83
2021/08/21 00:52:45;;;;;;;7.65;4.95;;;;;;;;;;5055422;28;20048;-83
2021/08/21 00:55:11;;;;;;;6.50;5.90;;;;;;;;;;5054247;28;20025;-83
2021/08/21 00:57:36;;;;;;;6.20;5.13;;;;;;;;;;5053024;28;20259;-83
2021/08/21 01:00:02;;;;;;;7.63;6.47;;;;;;;;;;5052654;28;20021;-83
2021/08/21 01:02:30;;;;;;;8.95;5.13;;;;;;;;;;5051597;28;20025;-83
2021/08/21 01:04:57;;;;;;;9.18;5.70;;;;;;;;;;5050830;28;20021;-83
2021/08/21 01:07:24;;;;;;;5.63;4.40;;;;;;;;;;5056757;28;20017;-83
2021/08/21 01:09:49;;;;;;;8.15;6.68;;;;;;;;;;5055451;28;20044;-83
2021/08/21 01:12:16;;;;;;;5.88;5.28;;;;;;;;;;5054031;28;20037;-83
2021/08/21 01:14:42;;;;;;;6.93;4.70;;;;;;;;;;5055892;28;20017;-83
2021/08/21 01:17:08;;;;;;;5.55;4.80;;;;;;;;;;5055829;28;20392;-83
2021/08/21 01:19:37;;;;;;;6.90;5.53;;;;;;;;;;5053754;28;20051;-83
2021/08/21 01:22:03;;;;;;;5.90;5.28;;;;;;;;;;5053405;28;20526;-83
2021/08/21 01:24:28;;;;;;;6.70;6.10;;;;;;;;;;5050700;28;20051;-83
2021/08/21 01:26:54;;;;;;;10.25;7.32;;;;;;;;;;5051932;28;20028;-83
2021/08/21 01:29:20;;;;;;;10.38;7.88;;;;;;;;;;5052678;28;20040;-83
2021/08/21 01:31:45;;;;;;;9.35;7.07;;;;;;;;;;5058163;28;20452;-83
2021/08/21 01:34:11;;;;;;;7.03;6.07;;;;;;;;;;5055905;28;20496;-83
2021/08/21 01:36:43;;;;;;;14.15;6.68;;;;;;;;;;5054345;28;20484;-83
2021/08/21 01:39:09;;;;;;;8.35;6.68;;;;;;;;;;5051823;28;20029;-83
2021/08/21 01:41:34;;;;;;;12.02;5.50;;;;;;;;;;5052522;28;20025;-83
2021/08/21 01:43:59;;;;;;;13.60;7.75;;;;;;;;;;5054250;28;20028;-83
2021/08/21 01:46:25;;;;;;;7.40;6.70;;;;;;;;;;5055530;28;20029;-83
2021/08/21 01:48:50;;;;;;;8.05;6.53;;;;;;;;;;5055420;28;20021;-83
2021/08/21 01:51:16;;;;;;;9.53;7.00;;;;;;;;;;5053424;28;20078;-83
2021/08/21 01:53:41;;;;;;;7.65;5.82;;;;;;;;;;5051254;28;20302;-83
2021/08/21 01:56:07;;;;;;;6.50;5.80;;;;;;;;;;5052965;28;20028;-83
2021/08/21 01:58:32;;;;;;;8.27;7.22;;;;;;;;;;5055321;28;20021;-83
2021/08/21 02:00:59;;;;;;;7.70;6.07;;;;;;;;;;5055308;28;20025;-83
2021/08/21 02:03:25;;;;;;;8.25;6.95;;;;;;;;;;5052497;28;20323;-83
2021/08/21 02:05:51;;;;;;;8.48;6.72;;;;;;;;;;5052021;28;20028;-82
2021/08/21 02:08:17;;;;;;;10.23;8.98;;;;;;;;;;5050915;28;20021;-83
2021/08/21 02:10:42;;;;;;;7.57;6.88;;;;;;;;;;5055697;28;20021;-83
2021/08/21 02:13:07;;;;;;;8.13;6.95;;;;;;;;;;5055835;28;20039;-83
2021/08/21 02:15:33;;;;;;;9.25;6.20;;;;;;;;;;5052906;28;20519;-83
2021/08/21 02:17:58;;;;;;;8.30;7.15;;;;;;;;;;5053308;28;20029;-83
2021/08/21 02:20:23;;;;;;;11.10;7.93;;;;;;;;;;5055062;28;20559;-83
2021/08/21 02:22:48;;;;;;;10.07;7.82;;;;;;;;;;5056001;28;20692;-83
2021/08/21 02:25:15;;;;;;;6.43;5.72;;;;;;;;;;5058232;28;20617;-83
2021/08/21 02:27:42;;;;;;;7.82;7.03;;;;;;;;;;5056422;28;20024;-83
2021/08/21 02:30:07;;;;;;;9.35;8.35;;;;;;;;;;5055549;28;20038;-83
2021/08/21 02:32:33;;;;;;;10.05;6.25;;;;;;;;;;5054876;28;20538;-83
2021/08/21 02:34:58;;;;;;;11.05;7.07;;;;;;;;;;5056702;28;20024;-83
2021/08/21 02:37:23;;;;;;;8.80;7.85;;;;;;;;;;5058598;28;20033;-83
2021/08/21 02:39:49;;;;;;;8.23;7.35;;;;;;;;;;5056491;28;20028;-83
2021/08/21 02:42:14;;;;;;;6.73;5.67;;;;;;;;;;5055362;28;20032;-83
2021/08/21 02:44:39;;;;;;;6.88;6.18;;;;;;;;;;5058178;28;20099;-83
2021/08/21 02:47:05;;;;;;;9.13;7.55;;;;;;;;;;5058168;28;20024;-83
2021/08/21 02:49:30;;;;;;;7.50;5.85;;;;;;;;;;5055220;28;20106;-83
2021/08/21 02:51:55;;;;;;;15.13;8.05;;;;;;;;;;5054509;28;20432;-83
2021/08/21 02:54:20;;;;;;;7.57;6.77;;;;;;;;;;5055176;28;20062;-83
2021/08/21 02:56:45;;;;;;;9.20;8.07;;;;;;;;;;5054283;28;20319;-83
2021/08/21 02:59:11;;;;;;;9.83;7.93;;;;;;;;;;5053632;28;20040;-83
2021/08/21 03:01:36;;;;;;;7.00;6.30;;;;;;;;;;5052104;28;20762;-82
2021/08/21 03:04:01;;;;;;;11.00;7.57;;;;;;;;;;5058965;28;20017;-83
2021/08/21 03:06:26;;;;;;;7.23;6.30;;;;;;;;;;5056199;28;20267;-83
2021/08/21 03:08:51;;;;;;;9.63;6.53;;;;;;;;;;5056094;28;20251;-83
2021/08/21 03:11:17;;;;;;;11.95;7.78;;;;;;;;;;5058453;28;20024;-82
2021/08/21 03:13:42;;;;;;;7.90;6.70;;;;;;;;;;5056607;28;20029;-83
2021/08/21 03:16:07;;;;;;;6.47;5.88;;;;;;;;;;5055435;28;20383;-83
2021/08/21 03:18:33;;;;;;;7.75;6.95;;;;;;;;;;5054741;28;20107;-83
2021/08/21 03:20:58;;;;;;;11.17;8.47;;;;;;;;;;5054106;28;20032;-83
2021/08/21 03:23:23;;;;;;;12.27;9.30;;;;;;;;;;5051893;28;20281;-83
2021/08/21 03:25:48;;;;;;;9.77;7.53;;;;;;;;;;5051761;28;20389;-83
2021/08/21 03:28:14;;;;;;;7.93;7.07;;;;;;;;;;5052752;28;20035;-82
2021/08/21 03:30:39;;;;;;;7.00;6.40;;;;;;;;;;5052989;28;20024;-83
2021/08/21 03:33:08;;;;;;;7.38;6.50;;;;;;;;;;5051551;28;20043;-82
2021/08/21 03:35:33;;;;;;;10.38;8.15;;;;;;;;;;5053934;28;20056;-83
2021/08/21 03:37:58;;;;;;;10.63;8.60;;;;;;;;;;5059079;28;20044;-83
2021/08/21 03:40:24;;;;;;;11.70;8.43;;;;;;;;;;5057669;28;20056;-83
2021/08/21 03:42:49;;;;;;;8.07;6.47;;;;;;;;;;5056282;28;20104;-83
2021/08/21 03:45:14;;;;;;;8.37;7.37;;;;;;;;;;5055724;28;20339;-83
2021/08/21 03:47:40;;;;;;;13.98;9.40;;;;;;;;;;5054201;28;20684;-83
2021/08/21 03:50:05;;;;;;;13.48;8.88;;;;;;;;;;5053615;28;20017;-83
2021/08/21 03:52:30;;;;;;;11.18;8.35;;;;;;;;;;5053282;28;20058;-83
2021/08/21 03:54:56;;;;;;;10.10;7.90;;;;;;;;;;5053188;28;20025;-83
2021/08/21 03:57:21;;;;;;;11.20;8.50;;;;;;;;;;5052891;28;20092;-83
2021/08/21 03:59:46;;;;;;;12.65;9.45;;;;;;;;;;5052336;28;20456;-83
2021/08/21 04:02:11;;;;;;;11.60;9.03;;;;;;;;;;5056833;28;20074;-83
2021/08/21 04:04:36;;;;;;;9.80;7.68;;;;;;;;;;5056842;28;20882;-83
2021/08/21 04:07:02;;;;;;;11.30;7.67;;;;;;;;;;5056023;28;20024;-83
2021/08/21 04:09:27;;;;;;;8.20;6.82;;;;;;;;;;5055936;28;20078;-83
2021/08/21 04:11:52;;;;;;;14.40;8.90;;;;;;;;;;5052321;28;20025;-83
2021/08/21 04:14:17;;;;;;;8.40;6.93;;;;;;;;;;5053734;28;20615;-83
2021/08/21 04:16:42;;;;;;;10.07;7.73;;;;;;;;;;5053536;28;20308;-83
2021/08/21 04:19:08;;;;;;;16.38;6.70;;;;;;;;;;5053374;28;20287;-83
2021/08/21 04:21:35;;;;;;;8.13;7.27;;;;;;;;;;5052849;28;20029;-83
2021/08/21 04:24:01;;;;;;;9.25;8.32;;;;;;;;;;5052012;28;20377;-83
2021/08/21 04:26:26;;;;;;;8.57;7.55;;;;;;;;;;5050677;28;20111;-83
2021/08/21 04:28:51;;;;;;;10.07;8.33;;;;;;;;;;5054764;28;20029;-83
2021/08/21 04:31:16;;;;;;;9.53;8.43;;;;;;;;;;5054740;28;20044;-83
2021/08/21 04:33:41;;;;;;;7.07;6.47;;;;;;;;;;5055277;28;20267;-83
2021/08/21 04:36:07;;;;;;;7.60;6.80;;;;;;;;;;5052826;28;20468;-83
2021/08/21 04:38:32;;;;;;;7.33;6.57;;;;;;;;;;5051178;28;20091;-83
2021/08/21 04:40:58;;;;;;;9.98;7.93;;;;;;;;;;5052391;28;20028;-83
2021/08/21 04:43:23;;;;;;;13.98;8.13;;;;;;;;;;5052272;28;20081;-83
2021/08/21 04:45:48;;;;;;;9.33;7.60;;;;;;;;;;5052012;28;20025;-83
2021/08/21 04:48:13;;;;;;;9.15;6.97;;;;;;;;;;5052191;28;21081;-83
2021/08/21 04:50:39;;;;;;;10.13;7.07;;;;;;;;;;5051666;28;20540;-83
2021/08/21 04:53:04;;;;;;;9.60;7.70;;;;;;;;;;5053261;28;20068;-83
2021/08/21 04:55:29;;;;;;;8.73;7.82;;;;;;;;;;5051459;28;20103;-83
2021/08/21 04:57:56;;;;;;;11.60;9.27;;;;;;;;;;5052526;28;20036;-83
2021/08/21 05:00:21;;;;;;;13.02;9.15;;;;;;;;;;5052347;28;20021;-83
2021/08/21 05:02:47;;;;;;;13.02;7.63;;;;;;;;;;5055024;28;20493;-83
2021/08/21 05:05:12;;;;;;;8.80;7.90;;;;;;;;;;5053579;28;20024;-83
2021/08/21 05:07:43;;;;;;;9.70;7.07;;;;;;;;;;5053027;28;20036;-83
2021/08/21 05:10:08;;;;;;;11.20;7.63;;;;;;;;;;5050919;28;20295;-84
2021/08/21 05:12:33;;;;;;;9.77;7.68;;;;;;;;;;5051528;28;20060;-83
2021/08/21 05:14:58;;;;;;;9.20;7.77;;;;;;;;;;5051329;28;20044;-83
2021/08/21 05:17:23;;;;;;;10.93;8.43;;;;;;;;;;5053822;28;20021;-83
2021/08/21 05:19:53;;;;;;;9.83;8.30;;;;;;;;;;5051408;28;20275;-83
2021/08/21 05:24:47;;;;;;;11.55;7.75;;;;;;;;;;5051576;28;20021;-83
2021/08/21 05:27:12;;;;;;;10.55;7.88;;;;;;;;;;5049581;28;20017;-83
2021/08/21 05:29:37;;;;;;;8.10;6.13;;;;;;;;;;5051607;28;20032;-83
2021/08/21 05:32:04;;;;;;;10.60;7.40;;;;;;;;;;5051121;28;20020;-84
2021/08/21 05:34:29;;;;;;;8.65;7.75;;;;;;;;;;5052208;28;20777;-83
2021/08/21 05:36:54;;;;;;;5.83;5.20;;;;;;;;;;5049761;28;20033;-83
2021/08/21 05:39:20;;;;;;;8.73;7.00;;;;;;;;;;5050569;28;20052;-84
2021/08/21 05:41:45;;;;;;;12.03;6.57;;;;;;;;;;5051445;28;20255;-83
2021/08/21 05:44:10;;;;;;;7.47;6.73;;;;;;;;;;5051472;28;20021;-83
2021/08/21 05:46:35;;;;;;;10.03;6.47;;;;;;;;;;5049624;28;20021;-83
2021/08/21 05:49:00;;;;;;;7.00;6.25;;;;;;;;;;5049195;28;20108;-83
2021/08/21 05:51:28;;;;;;;7.30;6.60;;;;;;;;;;5050967;28;20028;-83
2021/08/21 05:53:54;;;;;;;7.55;5.53;;;;;;;;;;5050473;28;20119;-83
2021/08/21 05:56:19;;;;;;;8.93;6.05;;;;;;;;;;5052798;28;20040;-84
2021/08/21 05:58:44;;;;;;;6.90;6.20;;;;;;;;;;5054597;28;20044;-83
2021/08/21 06:01:09;;;;;;;12.17;6.83;;;;;;;;;;5055648;28;20024;-83
2021/08/21 06:03:34;;;;;;;7.53;6.10;;;;;;;;;;5044315;28;20093;-83
2021/08/21 06:06:00;;;;;;;6.80;5.37;;;;;;;;;;5042990;28;20021;-83
2021/08/21 06:08:25;;;;;;;4.40;3.80;;;;;;;;;;5040018;28;20270;-83
2021/08/21 06:10:51;;;;;;;6.23;4.77;;;;;;;;;;5032022;28;20260;-83
2021/08/21 06:13:16;;;;;;;5.28;4.55;;;;;;;;;;5035542;28;20309;-83
2021/08/21 06:15:41;;;;;;;6.60;3.97;;;;;;;;;;5044941;28;20156;-83
2021/08/21 06:18:07;;;;;;;7.03;4.40;;;;;;;;;;5042454;28;20524;-83
2021/08/21 06:20:32;;;;;;;11.33;5.23;;;;;;;;;;5040379;28;20275;-83
2021/08/21 06:22:57;;;;;;;7.73;5.30;;;;;;;;;;5032761;28;20024;-83
2021/08/21 06:25:22;;;;;;;7.33;5.37;;;;;;;;;;5047135;28;20270;-83
2021/08/21 06:27:49;;;;;;;8.63;4.47;;;;;;;;;;5038800;28;20719;-83
2021/08/21 06:30:14;;;;;;;10.70;5.45;;;;;;;;;;5040337;28;20302;-84
2021/08/21 06:32:39;;;;;;;7.75;4.93;;;;;;;;;;5032515;28;20021;-83
2021/08/21 06:35:05;;;;;;;8.73;5.80;;;;;;;;;;5031002;28;20056;-84
2021/08/21 06:37:30;;;;;;;6.13;5.53;;;;;;;;;;5047490;28;20525;-84
2021/08/21 06:39:56;;;;;;;6.35;5.32;;;;;;;;;;5035707;28;20839;-84
2021/08/21 06:42:21;;;;;;;6.07;5.50;;;;;;;;;;5047728;28;20044;-84
2021/08/21 06:44:46;;;;;;;7.10;6.22;;;;;;;;;;5043510;28;20248;-84
2021/08/21 06:47:11;;;;;;;23.60;12.97;;;;;;;;;;5053566;28;20020;-84
2021/08/21 06:49:37;;;;;;;9.60;7.20;;;;;;;;;;5055362;28;20266;-84
2021/08/21 06:52:02;;;;;;;6.72;6.07;;;;;;;;;;5045701;28;20348;-84
2021/08/21 06:54:27;;;;;;;23.40;13.55;;;;;;;;;;5033735;28;20068;-84
2021/08/21 06:56:52;;;;;;;11.87;7.80;;;;;;;;;;5032120;28;20022;-83
2021/08/21 06:59:17;;;;;;;11.97;7.40;;;;;;;;;;5032499;28;20370;-81
2021/08/21 07:01:43;;;;;;;6.77;6.07;;;;;;;;;;5037761;28;20032;-83
2021/08/21 07:04:08;;;;;;;9.45;5.95;;;;;;;;;;5034089;28;20044;-83
2021/08/21 07:06:33;;;;;;;7.70;5.70;;;;;;;;;;5029773;28;20469;-82
2021/08/21 07:08:58;;;;;;;6.97;5.47;;;;;;;;;;5047026;28;20271;-83
2021/08/21 07:11:24;;;;;;;7.22;5.90;;;;;;;;;;5032921;28;20275;-81
2021/08/21 07:13:49;;;;;;;7.60;5.68;;;;;;;;;;5048384;28;20022;-83
2021/08/21 07:16:14;;;;;;;9.00;5.63;;;;;;;;;;5033426;28;20053;-83
2021/08/21 07:18:39;;;;;;;5.93;5.32;;;;;;;;;;5047436;28;20021;-83
2021/08/21 07:21:07;;;;;;;5.00;4.57;;;;;;;;;;5036939;28;20470;-83
2021/08/21 07:23:32;;;;;;;6.30;4.78;;;;;;;;;;5048137;28;20021;-83
2021/08/21 07:25:57;;;;;;;4.82;4.10;;;;;;;;;;5038450;28;20334;-83
2021/08/21 07:28:23;;;;;;;6.60;4.00;;;;;;;;;;5041024;28;20037;-83
2021/08/21 07:30:48;;;;;;;6.40;3.90;;;;;;;;;;5046854;28;20270;-83
2021/08/21 07:33:13;;;;;;;5.10;4.10;;;;;;;;;;5033858;28;20025;-83
2021/08/21 07:35:38;;;;;;;5.77;3.90;;;;;;;;;;5051436;28;20108;-85
2021/08/21 07:38:04;;;;;;;3.78;3.47;;;;;;;;;;5043309;28;20326;-85
2021/08/21 07:40:30;;;;;;;4.90;3.90;;;;;;;;;;5043663;28;20032;-84
2021/08/21 07:42:55;;;;;;;6.32;3.47;;;;;;;;;;5033932;28;20513;-85
2021/08/21 07:45:20;;;;;;;3.77;3.07;;;;;;;;;;5049292;28;20499;-84
2021/08/21 07:47:49;;;;;;;5.50;3.23;;;;;;;;;;5030636;28;20021;-85
2021/08/21 07:50:14;;;;;;;4.38;2.80;;;;;;;;;;5041033;28;20666;-84
2021/08/21 07:52:42;;;;;;;5.40;2.80;;;;;;;;;;5050725;28;20020;-84
2021/08/21 07:55:08;;;;;;;2.88;2.55;;;;;;;;;;5034527;28;20739;-84
2021/08/21 07:57:33;;;;;;;6.25;2.95;;;;;;;;;;5041679;28;20025;-85
2021/08/21 07:59:58;;;;;;;2.93;2.67;;;;;;;;;;5040217;28;20036;-85
2021/08/21 08:02:23;;;;;;;4.30;2.90;;;;;;;;;;5046002;28;20031;-84
2021/08/21 08:04:48;;;;;;;5.20;2.75;;;;;;;;;;5040565;28;20321;-85
2021/08/21 08:07:14;;;;;;;6.20;2.60;;;;;;;;;;5034373;28;20025;-85
2021/08/21 08:09:39;;;;;;;5.03;2.70;;;;;;;;;;5044805;28;20120;-85
2021/08/21 08:12:04;;;;;;;3.63;2.57;;;;;;;;;;5037543;28;20021;-85
2021/08/21 08:14:29;;;;;;;2.85;2.03;;;;;;;;;;5035431;28;20349;-84
2021/08/21 08:16:54;;;;;;;3.47;2.40;;;;;;;;;;5043167;28;20135;-84
2021/08/21 08:19:20;;;;;;;2.93;1.83;;;;;;;;;;5029305;28;20418;-85
2021/08/21 08:21:45;;;;;;;2.57;1.47;;;;;;;;;;5040724;28;20030;-85
2021/08/21 08:24:12;;;;;;;2.28;1.33;;;;;;;;;;5035904;28;20045;-84
2021/08/21 08:26:37;;;;;;;4.20;1.50;;;;;;;;;;5035260;28;20112;-85
2021/08/21 08:29:02;;;;;;;1.43;1.33;;;;;;;;;;5046464;28;20615;-85
2021/08/21 08:31:28;;;;;;;1.40;1.30;;;;;;;;;;5032353;28;20450;-85
2021/08/21 08:33:53;;;;;;;5.50;1.55;;;;;;;;;;5038018;28;20022;-85
2021/08/21 08:36:18;;;;;;;2.13;1.40;;;;;;;;;;5036372;28;20028;-85
2021/08/21 08:38:44;;;;;;;5.67;1.90;;;;;;;;;;5031188;28;20082;-85
2021/08/21 08:41:10;;;;;;;3.80;1.20;;;;;;;;;;5043771;28;20343;-85
2021/08/21 08:43:35;;;;;;;3.35;1.40;;;;;;;;;;5030394;28;20271;-85
2021/08/21 08:46:00;;;;;;;2.58;1.50;;;;;;;;;;5037914;28;20439;-84
2021/08/21 08:48:26;;;;;;;5.07;1.40;;;;;;;;;;5037837;28;20511;-83
2021/08/21 08:50:53;;;;;;;4.07;1.70;;;;;;;;;;5029756;28;20021;-85
2021/08/21 08:53:18;;;;;;;4.40;1.30;;;;;;;;;;5043615;28;20112;-84
2021/08/21 08:55:46;;;;;;;4.17;1.30;;;;;;;;;;5033330;28;20108;-85
2021/08/21 08:58:11;;;;;;;1.45;1.13;;;;;;;;;;5041455;28;20310;-84
2021/08/21 09:00:36;;;;;;;1.70;1.23;;;;;;;;;;5033925;28;20503;-85
2021/08/21 09:03:03;;;;;;;1.63;1.40;;;;;;;;;;5043894;28;20021;-85
2021/08/21 09:05:41;;;;;;;2.35;1.15;;;;;;;;;;5030621;28;20252;-84
2021/08/21 09:08:07;;;;;;;1.98;1.27;;;;;;;;;;5044626;28;20112;-85
2021/08/21 09:10:33;;;;;;;2.70;1.40;;;;;;;;;;5033805;28;20033;-84
2021/08/21 09:13:29;;;;;;;2.47;1.40;;;;;;;;;;5043085;28;20032;-84
2021/08/21 09:15:58;;;;;;;3.72;1.25;;;;;;;;;;5025480;28;20063;-85
2021/08/21 09:18:24;;;;;;;1.35;1.15;;;;;;;;;;5034615;28;20111;-85
2021/08/21 09:20:51;;;;;;;2.83;1.20;;;;;;;;;;5040587;28;20017;-85
2021/08/21 09:23:17;;;;;;;1.30;1.00;;;;;;;;;;5029376;28;20021;-84
2021/08/21 09:25:43;;;;;;;1.92;1.20;;;;;;;;;;5038593;28;20026;-84
2021/08/21 09:28:15;;;;;;;1.75;1.40;;;;;;;;;;5033998;28;20032;-84
2021/08/21 09:30:40;;;;;;;2.35;1.25;;;;;;;;;;5030767;28;20382;-84
2021/08/21 09:33:06;;;;;;;2.27;1.30;;;;;;;;;;5041832;28;20040;-85
2021/08/21 09:35:34;;;;;;;1.70;1.15;;;;;;;;;;5028883;28;20256;-84
2021/08/21 09:38:00;;;;;;;5.30;1.60;;;;;;;;;;5037203;28;20154;-84
2021/08/21 09:40:36;;;;;;;1.90;1.33;;;;;;;;;;5026648;28;20064;-85
2021/08/21 09:43:02;;;;;;;1.95;1.30;;;;;;;;;;5027920;28;20017;-85
2021/08/21 09:45:28;;;;;;;1.65;1.38;;;;;;;;;;5036272;28;20165;-85
2021/08/21 09:48:04;;;;;;;2.23;1.30;;;;;;;;;;5040514;28;20116;-85
2021/08/21 09:50:37;;;;;;;2.13;1.48;;;;;;;;;;5028744;28;20473;-84
2021/08/21 09:53:06;;;;;;;2.05;1.40;;;;;;;;;;5045602;28;20052;-85
2021/08/21 09:55:31;;;;;;;2.47;1.48;;;;;;;;;;5043908;28;20026;-85
2021/08/21 09:58:08;;;;;;;2.80;1.30;;;;;;;;;;5028407;28;20022;-85
2021/08/21 10:00:35;;;;;;;2.70;1.10;;;;;;;;;;5041726;28;20024;-84
2021/08/21 10:03:04;;;;;;;3.40;1.15;;;;;;;;;;5030256;28;20018;-85
2021/08/21 10:05:29;;;;;;;3.08;1.17;;;;;;;;;;5033325;28;20024;-85
2021/08/21 10:08:12;;;;;;;5.93;1.43;;;;;;;;;;5044944;28;20393;-85
2021/08/21 10:10:48;;;;;;;;;;;;;;;;;;;;;
2021/08/21 10:13:24;;;;;;;1.65;1.30;;;;;;;;;;5041924;28;20016;-85
2021/08/21 10:15:49;;;;;;;3.10;1.30;;;;;;;;;;5034403;28;20501;-84
2021/08/21 10:18:17;;;;;;;0.93;0.75;;;;;;;;;;5037454;28;20041;-84
2021/08/21 10:20:42;;;;;;;2.78;1.00;;;;;;;;;;5041538;28;20437;-84
2021/08/21 10:23:12;;;;;;;4.13;1.20;;;;;;;;;;5029434;28;20056;-84
2021/08/21 10:25:40;;;;;;;1.13;1.02;;;;;;;;;;5041986;28;20291;-84
2021/08/21 10:28:06;;;;;;;1.63;0.88;;;;;;;;;;5025301;28;20041;-84
2021/08/21 10:30:48;;;;;;;1.95;1.00;;;;;;;;;;5036933;28;20477;-85
2021/08/21 10:33:14;;;;;;;1.27;1.13;;;;;;;;;;5027558;28;20029;-85
2021/08/21 10:35:45;;;;;;;2.33;1.20;;;;;;;;;;5039246;28;20385;-85
2021/08/21 10:38:28;;;;;;;1.15;0.93;;;;;;;;;;5036072;28;20115;-85
2021/08/21 10:40:53;;;;;;;1.92;0.85;;;;;;;;;;5031206;28;20412;-85
2021/08/21 10:43:38;;;;;;;3.10;1.03;;;;;;;;;;5042810;28;20017;-85
2021/08/21 10:46:04;;;;;;;3.90;1.27;;;;;;;;;;5038664;28;20311;-85
2021/08/21 10:48:36;;;;;;;3.03;1.10;;;;;;;;;;5035689;28;20508;-85
2021/08/21 10:51:04;;;;;;;1.90;1.10;;;;;;;;;;5044504;28;20682;-85
2021/08/21 10:53:30;;;;;;;2.35;1.10;;;;;;;;;;5032304;28;20028;-85
2021/08/21 10:55:56;;;;;;;2.17;0.80;;;;;;;;;;5041371;28;20037;-85
2021/08/21 10:58:22;;;;;;;1.35;1.25;;;;;;;;;;5029666;28;20033;-85
2021/08/21 11:00:49;;;;;;;2.35;0.95;;;;;;;;;;5042909;28;20043;-84
2021/08/21 11:03:34;;;;;;;1.48;0.98;;;;;;;;;;5032482;28;20021;-84
2021/08/21 11:06:04;;;;;;;0.93;0.90;;;;;;;;;;5039905;28;20028;-84
2021/08/21 11:08:30;;;;;;;1.88;1.20;;;;;;;;;;5042459;28;20053;-85
2021/08/21 11:11:08;;;;;;;4.95;1.20;;;;;;;;;;5031909;28;20041;-85
2021/08/21 11:13:49;;;;;;;1.63;1.40;;;;;;;;;;5019648;28;20021;-85
2021/08/21 11:16:15;;;;;;;1.58;1.20;;;;;;;;;;5036649;28;20163;-85
2021/08/21 11:18:44;;;;;;;2.22;1.15;;;;;;;;;;5042890;28;20025;-84
2021/08/21 11:21:28;;;;;;;1.83;0.98;;;;;;;;;;5030860;28;20033;-85
2021/08/21 11:23:53;;;;;;;4.05;0.82;;;;;;;;;;5040587;28;20021;-85
2021/08/21 11:26:22;;;;;;;2.37;1.20;;;;;;;;;;5038103;28;20503;-85
2021/08/21 11:29:04;;;;;;;3.72;1.33;;;;;;;;;;5034613;28;20108;-85
2021/08/21 11:31:50;;;;;;;2.30;1.17;;;;;;;;;;5019430;28;20546;-85
2021/08/21 11:34:15;;;;;;;1.92;1.13;;;;;;;;;;5039175;28;20147;-84
2021/08/21 11:36:40;;;;;;;1.70;1.10;;;;;;;;;;5041404;28;20104;-85
2021/08/21 11:39:08;;;;;;;1.33;1.00;;;;;;;;;;5031876;28;20112;-85
2021/08/21 11:41:34;;;;;;;1.77;1.30;;;;;;;;;;5042467;28;20410;-85
2021/08/21 11:44:04;;;;;;;1.40;1.27;;;;;;;;;;5036843;28;20021;-85
2021/08/21 11:46:29;;;;;;;1.50;1.40;;;;;;;;;;5037490;28;20387;-85
2021/08/21 11:49:04;;;;;;;1.70;1.35;;;;;;;;;;5032420;28;20495;-85
2021/08/21 11:51:29;;;;;;;2.40;1.15;;;;;;;;;;5031800;28;20503;-85
2021/08/21 11:53:54;;;;;;;1.45;1.25;;;;;;;;;;5031816;28;20116;-85
2021/08/21 11:56:20;;;;;;;1.40;1.10;;;;;;;;;;5030483;28;20772;-84
2021/08/21 11:58:48;;;;;;;2.37;1.20;;;;;;;;;;5031771;28;20284;-84
2021/08/21 12:01:14;;;;;;;1.48;1.15;;;;;;;;;;5031391;28;20328;-86
2021/08/21 12:06:20;;;;;;;3.13;1.25;;;;;;;;;;5038344;28;20028;-84
2021/08/21 12:08:45;;;;;;;1.30;1.20;;;;;;;;;;5036158;28;20562;-84
2021/08/21 12:11:10;;;;;;;1.30;1.10;;;;;;;;;;5037312;28;20108;-84
2021/08/21 12:13:37;;;;;;;3.50;1.13;;;;;;;;;;5037087;28;20025;-84
2021/08/21 12:16:07;;;;;;;1.30;1.20;;;;;;;;;;5033461;28;20299;-84
2021/08/21 12:18:34;;;;;;;1.70;0.90;;;;;;;;;;5035024;28;20040;-84
2021/08/21 12:21:00;;;;;;;3.08;1.20;;;;;;;;;;5031765;28;20434;-83
2021/08/21 12:23:25;;;;;;;1.98;1.42;;;;;;;;;;5035746;28;20120;-84
2021/08/21 12:25:52;;;;;;;3.88;1.67;;;;;;;;;;5036666;28;20045;-84
2021/08/21 12:28:19;;;;;;;1.45;1.13;;;;;;;;;;5034649;28;20068;-84
2021/08/21 12:30:54;;;;;;;1.08;1.00;;;;;;;;;;5035855;28;20017;-84
2021/08/21 12:33:25;;;;;;;1.73;1.23;;;;;;;;;;5035571;28;20052;-84
2021/08/21 12:35:50;;;;;;;1.63;1.52;;;;;;;;;;5033536;28;20025;-84
2021/08/21 12:38:18;;;;;;;3.42;1.30;;;;;;;;;;5032767;28;20111;-84
2021/08/21 12:40:43;;;;;;;2.05;1.23;;;;;;;;;;5036690;28;20441;-84
2021/08/21 12:43:08;;;;;;;2.03;1.57;;;;;;;;;;5037081;28;20037;-84
2021/08/21 12:45:43;;;;;;;2.28;1.10;;;;;;;;;;5035456;28;20051;-84
2021/08/21 12:48:09;;;;;;;1.80;1.00;;;;;;;;;;5034362;28;20053;-84
2021/08/21 12:50:40;;;;;;;1.63;1.10;;;;;;;;;;5035574;28;20444;-84
2021/08/21 12:53:06;;;;;;;2.63;1.35;;;;;;;;;;5034807;28;20032;-83
2021/08/21 12:55:32;;;;;;;5.00;4.00;;;;;;;;;;5033867;28;20417;-84
2021/08/21 12:58:07;;;;;;;2.40;1.50;;;;;;;;;;5035228;28;20120;-84
2021/08/21 13:00:33;;;;;;;5.28;4.78;;;;;;;;;;5037044;28;20457;-84
2021/08/21 13:03:11;;;;;;;2.70;2.28;;;;;;;;;;5034863;28;20092;-84
2021/08/21 13:05:36;;;;;;;1.13;1.10;;;;;;;;;;5032270;28;20030;-84
2021/08/21 13:08:08;;;;;;;2.53;1.30;;;;;;;;;;5032404;28;20020;-84
2021/08/21 13:10:36;;;;;;;3.00;1.48;;;;;;;;;;5030081;28;20026;-84
2021/08/21 13:13:01;;;;;;;1.70;1.45;;;;;;;;;;5031201;28;20398;-82
2021/08/21 13:15:27;;;;;;;1.90;1.27;;;;;;;;;;5030724;28;20139;-82
2021/08/21 13:17:52;;;;;;;2.22;0.95;;;;;;;;;;5030183;28;20056;-82
2021/08/21 13:20:19;;;;;;;1.23;0.90;;;;;;;;;;5028586;28;20045;-82
2021/08/21 13:22:46;;;;;;;2.47;1.20;;;;;;;;;;5030737;28;20047;-82
2021/08/21 13:25:11;;;;;;;3.28;1.05;;;;;;;;;;5030527;28;20025;-82
2021/08/21 13:27:37;;;;;;;1.40;1.10;;;;;;;;;;5030434;28;20021;-82
2021/08/21 13:30:03;;;;;;;0.90;0.90;;;;;;;;;;5029173;28;20021;-82
2021/08/21 13:32:28;;;;;;;1.95;1.20;;;;;;;;;;5031859;28;20036;-82
2021/08/21 13:34:53;;;;;;;1.40;1.30;;;;;;;;;;5032583;28;20032;-83
2021/08/21 13:37:18;;;;;;;1.60;1.08;;;;;;;;;;5032728;28;20408;-84
2021/08/21 13:39:44;;;;;;;1.35;1.20;;;;;;;;;;5029958;28;20105;-84
2021/08/21 13:42:09;;;;;;;1.58;1.48;;;;;;;;;;5030244;28;20071;-84
2021/08/21 13:44:35;;;;;;;1.25;1.17;;;;;;;;;;5029369;28;20027;-84
2021/08/21 13:47:00;;;;;;;2.33;1.30;;;;;;;;;;5030758;28;20029;-84
2021/08/21 13:49:26;;;;;;;2.55;0.95;;;;;;;;;;5030174;28;20022;-85
2021/08/21 13:51:51;;;;;;;1.10;1.00;;;;;;;;;;5030713;28;20052;-84
2021/08/21 13:54:16;;;;;;;1.40;1.30;;;;;;;;;;5029738;28;20029;-84
2021/08/21 13:56:41;;;;;;;1.10;1.00;;;;;;;;;;5029027;28;20271;-84
2021/08/21 13:59:07;;;;;;;1.30;1.20;;;;;;;;;;5027814;28;20067;-84
2021/08/21 14:01:32;;;;;;;1.50;1.20;;;;;;;;;;5029965;28;20021;-84
2021/08/21 14:03:57;;;;;;;1.40;1.00;;;;;;;;;;5029458;28;20029;-84
2021/08/21 14:06:22;;;;;;;2.47;1.07;;;;;;;;;;5028114;28;20470;-84
2021/08/21 14:08:48;;;;;;;2.03;1.10;;;;;;;;;;5031301;28;20329;-84
2021/08/21 14:11:13;;;;;;;1.80;1.27;;;;;;;;;;5029966;28;20036;-84
2021/08/21 14:13:38;;;;;;;1.20;1.10;;;;;;;;;;5029841;28;20037;-84
2021/08/21 14:16:03;;;;;;;1.70;1.30;;;;;;;;;;5029673;28;20080;-84
2021/08/21 14:18:29;;;;;;;1.92;1.35;;;;;;;;;;5030278;28;20022;-84
2021/08/21 14:20:54;;;;;;;2.53;1.23;;;;;;;;;;5033656;28;20048;-84
2021/08/21 14:23:19;;;;;;;1.97;1.40;;;;;;;;;;5033262;28;20032;-84
2021/08/21 14:25:44;;;;;;;3.30;1.20;;;;;;;;;;5033312;28;20334;-84
2021/08/21 14:28:10;;;;;;;1.13;1.03;;;;;;;;;;5032735;28;20014;-83
2021/08/21 14:30:36;;;;;;;2.35;1.20;;;;;;;;;;5032865;28;20041;-82
2021/08/21 14:33:01;;;;;;;1.30;0.88;;;;;;;;;;5032928;28;20036;-82
2021/08/21 14:35:26;;;;;;;2.73;1.50;;;;;;;;;;5032426;28;20533;-82
2021/08/21 14:37:51;;;;;;;1.30;1.07;;;;;;;;;;5032705;28;20257;-82
2021/08/21 14:40:17;;;;;;;3.73;1.80;;;;;;;;;;5032660;28;20037;-82
2021/08/21 14:42:42;;;;;;;2.55;0.98;;;;;;;;;;5031539;28;20659;-82
2021/08/21 14:45:08;;;;;;;0.80;0.80;;;;;;;;;;5032744;28;20092;-82